createdAt,value
2022-10-11T00:00:08.414Z,60.20
2022-10-11T00:03:12.173Z,67.65
2022-10-11T00:06:15.300Z,59.17
2022-10-11T00:09:19.422Z,76.00
2022-10-11T00:12:23.131Z,60.60
2022-10-11T00:15:26.854Z,58.35
2022-10-11T00:18:30.452Z,51.83
2022-10-11T00:21:34.524Z,52.70
2022-10-11T00:24:38.164Z,61.30
2022-10-11T00:27:41.076Z,51.60
2022-10-11T00:30:44.791Z,52.88
2022-10-11T00:33:48.293Z,57.08
2022-10-11T00:36:51.279Z,84.47
2022-10-11T00:39:54.940Z,60.83
2022-10-11T00:42:58.726Z,60.97
2022-10-11T00:46:24.394Z,81.38
2022-10-11T00:49:56.471Z,80.65
2022-10-11T00:53:05.690Z,71.82
2022-10-11T00:56:18.052Z,57.78
2022-10-11T00:59:29.682Z,59.73
2022-10-11T01:02:32.698Z,51.60
2022-10-11T01:05:40.505Z,48.53
2022-10-11T01:08:45.052Z,47.42
2022-10-11T01:11:51.638Z,49.97
2022-10-11T01:15:06.456Z,43.07
2022-10-11T01:18:13.531Z,39.05
2022-10-11T01:21:50.142Z,58.53
2022-10-11T01:25:25.107Z,55.60
2022-10-11T01:28:53.082Z,43.00
2022-10-11T01:32:16.270Z,57.83
2022-10-11T01:35:37.666Z,49.33
2022-10-11T01:38:49.015Z,46.13
2022-10-11T01:41:56.277Z,44.60
2022-10-11T01:45:00.044Z,50.63
2022-10-11T01:48:09.170Z,54.50
2022-10-11T01:51:12.065Z,50.33
2022-10-11T01:54:25.206Z,41.88
2022-10-11T01:57:35.257Z,37.97
2022-10-11T02:00:59.506Z,37.85
2022-10-11T02:04:32.357Z,51.47
2022-10-11T02:07:45.310Z,44.72
2022-10-11T02:10:51.838Z,47.13
2022-10-11T02:14:06.815Z,46.30
2022-10-11T02:17:18.329Z,46.75
2022-10-11T02:20:25.085Z,47.40
2022-10-11T02:23:36.928Z,43.45
2022-10-11T02:26:44.605Z,56.30
2022-10-11T02:29:50.153Z,52.75
2022-10-11T02:32:54.599Z,56.80
2022-10-11T02:36:08.659Z,55.57
2022-10-11T02:39:32.366Z,50.05
2022-10-11T02:42:45.423Z,58.40
2022-10-11T02:45:56.794Z,55.85
2022-10-11T02:49:01.674Z,49.88
2022-10-11T02:52:07.399Z,55.43
2022-10-11T02:55:12.263Z,52.67
2022-10-11T02:58:15.595Z,55.42
2022-10-11T03:01:19.870Z,52.95
2022-10-11T03:04:23.607Z,51.05
2022-10-11T03:07:27.705Z,47.27
2022-10-11T03:10:31.575Z,49.78
2022-10-11T03:13:35.914Z,54.88
2022-10-11T03:16:39.704Z,45.33
2022-10-11T03:19:42.982Z,49.45
2022-10-11T03:22:46.956Z,44.83
2022-10-11T03:25:50.164Z,41.28
2022-10-11T03:28:54.077Z,44.45
2022-10-11T03:31:57.486Z,37.15
2022-10-11T03:35:01.097Z,40.55
2022-10-11T03:38:04.850Z,41.43
2022-10-11T03:41:08.136Z,33.35
2022-10-11T03:44:11.813Z,39.30
2022-10-11T03:47:15.398Z,31.83
2022-10-11T03:50:19.405Z,29.10
2022-10-11T03:53:23.470Z,30.30
2022-10-11T03:56:27.266Z,41.53
2022-10-11T03:59:31.724Z,33.35
2022-10-11T04:02:38.929Z,37.88
2022-10-11T04:05:42.776Z,36.00
2022-10-11T04:08:46.061Z,38.57
2022-10-11T04:11:49.792Z,30.60
2022-10-11T04:14:53.457Z,35.53
2022-10-11T04:17:56.484Z,36.25
2022-10-11T04:21:00.170Z,31.35
2022-10-11T04:24:03.476Z,36.60
2022-10-11T04:27:07.200Z,37.83
2022-10-11T04:30:11.764Z,36.13
2022-10-11T04:33:15.236Z,35.15
2022-10-11T04:36:19.149Z,37.47
2022-10-11T04:39:22.785Z,46.83
2022-10-11T04:42:26.101Z,37.58
2022-10-11T04:45:29.930Z,36.00
2022-10-11T04:48:33.972Z,34.85
2022-10-11T04:51:37.339Z,30.92
2022-10-11T04:54:41.287Z,32.17
2022-10-11T04:57:44.263Z,40.00
2022-10-11T05:00:47.642Z,34.95
2022-10-11T05:03:51.776Z,32.15
2022-10-11T05:06:56.536Z,37.60
2022-10-11T05:09:59.812Z,34.83
2022-10-11T05:13:03.524Z,34.30
2022-10-11T05:16:10.863Z,36.75
2022-10-11T05:19:15.475Z,38.88
2022-10-11T05:22:18.410Z,33.75
2022-10-11T05:25:22.224Z,30.77
2022-10-11T05:28:25.802Z,36.20
2022-10-11T05:31:29.473Z,31.13
2022-10-11T05:34:32.420Z,24.23
2022-10-11T05:37:35.909Z,25.30
2022-10-11T05:40:40.977Z,24.47
2022-10-11T05:43:45.387Z,23.75
2022-10-11T05:46:48.985Z,23.05
2022-10-11T05:49:52.645Z,24.80
2022-10-11T05:52:57.278Z,26.02
2022-10-11T05:56:01.023Z,22.97
2022-10-11T05:59:05.693Z,18.65
2022-10-11T06:02:17.983Z,21.33
2022-10-11T06:05:21.594Z,20.27
2022-10-11T06:08:24.636Z,16.55
2022-10-11T06:11:28.717Z,12.10
2022-10-11T06:14:32.086Z,16.20
2022-10-11T06:17:36.275Z,18.52
2022-10-11T06:20:39.895Z,15.73
2022-10-11T06:23:43.368Z,15.10
2022-10-11T06:26:46.368Z,16.20
2022-10-11T06:29:50.322Z,18.83
2022-10-11T06:32:53.681Z,18.40
2022-10-11T06:36:08.188Z,26.85
2022-10-11T06:39:12.276Z,20.42
2022-10-11T06:42:15.901Z,20.40
2022-10-11T06:45:18.809Z,19.63
2022-10-11T06:48:21.808Z,15.93
2022-10-11T06:51:26.134Z,18.85
2022-10-11T06:54:29.141Z,12.55
2022-10-11T06:57:33.042Z,15.30
2022-10-11T07:00:35.995Z,10.55
2022-10-11T07:03:39.984Z,15.18
2022-10-11T07:06:44.108Z,13.35
2022-10-11T07:09:47.542Z,11.80
2022-10-11T07:12:51.360Z,11.80
2022-10-11T07:15:54.432Z,15.07
2022-10-11T07:19:01.218Z,15.80
2022-10-11T07:22:05.177Z,11.38
2022-10-11T07:25:08.858Z,9.88
2022-10-11T07:28:13.123Z,10.00
2022-10-11T07:31:23.221Z,8.63
2022-10-11T07:34:26.977Z,7.13
2022-10-11T07:37:30.067Z,7.32
2022-10-11T07:40:34.695Z,11.88
2022-10-11T07:43:39.053Z,9.67
2022-10-11T07:46:42.832Z,10.70
2022-10-11T07:49:46.172Z,8.65
2022-10-11T07:52:49.140Z,12.20
2022-10-11T07:55:52.711Z,8.32
2022-10-11T07:58:58.285Z,7.80
2022-10-11T08:02:01.450Z,9.05
2022-10-11T08:05:05.017Z,9.77
2022-10-11T08:08:07.966Z,18.65
2022-10-11T08:11:11.643Z,9.00
2022-10-11T08:14:15.372Z,9.70
2022-10-11T08:17:18.990Z,9.23
2022-10-11T08:20:22.763Z,11.73
2022-10-11T08:23:26.675Z,6.07
2022-10-11T08:26:29.590Z,12.38
2022-10-11T08:29:36.344Z,15.17
2022-10-11T08:32:40.451Z,15.07
2022-10-11T08:35:43.346Z,15.80
2022-10-11T08:38:47.166Z,15.52
2022-10-11T08:42:02.278Z,10.07
2022-10-11T08:45:11.393Z,9.73
2022-10-11T08:48:30.126Z,7.95
2022-10-11T08:52:00.752Z,7.40
2022-10-11T08:55:22.284Z,13.32
2022-10-11T08:58:39.511Z,14.60
2022-10-11T09:01:53.443Z,10.23
2022-10-11T09:04:56.859Z,13.50
2022-10-11T09:08:15.742Z,11.25
2022-10-11T09:11:47.938Z,16.98
2022-10-11T09:15:12.233Z,18.45
2022-10-11T09:18:32.800Z,26.20
2022-10-11T09:21:55.344Z,28.42
2022-10-11T09:24:58.919Z,20.63
2022-10-11T09:28:20.650Z,27.30
2022-10-11T09:31:24.974Z,29.77
2022-10-11T09:34:34.460Z,19.17
2022-10-11T09:37:49.864Z,26.63
2022-10-11T09:41:22.125Z,31.35
2022-10-11T09:44:28.047Z,50.78
2022-10-11T09:47:35.151Z,44.22
2022-10-11T09:50:40.255Z,47.30
2022-10-11T09:54:01.304Z,74.70
2022-10-11T09:57:05.161Z,70.13
2022-10-11T10:00:21.751Z,71.07
2022-10-11T10:03:30.485Z,70.00
2022-10-11T10:06:35.450Z,68.70
2022-10-11T10:09:38.574Z,57.97
2022-10-11T10:12:41.753Z,59.28
2022-10-11T10:15:56.952Z,60.10
2022-10-11T10:19:05.675Z,63.95
2022-10-11T10:22:19.585Z,49.37
2022-10-11T10:25:31.062Z,57.25
2022-10-11T10:28:35.205Z,57.63
2022-10-11T10:32:13.468Z,57.88
2022-10-11T10:35:26.944Z,112.43
2022-10-11T10:38:34.745Z,140.00
2022-10-11T10:41:38.905Z,146.82
2022-10-11T10:44:44.006Z,147.85
2022-10-11T10:48:11.617Z,138.15
2022-10-11T10:51:37.790Z,153.30
2022-10-11T10:54:56.648Z,147.67
2022-10-11T10:58:30.131Z,162.20
2022-10-11T11:01:36.134Z,143.70
2022-10-11T11:04:40.124Z,140.27
2022-10-11T11:08:09.251Z,127.47
2022-10-11T11:11:24.104Z,135.80
2022-10-11T11:15:00.301Z,108.07
2022-10-11T11:18:09.245Z,112.28
2022-10-11T11:21:31.593Z,90.05
2022-10-11T11:24:41.061Z,87.28
2022-10-11T11:27:52.987Z,93.90
2022-10-11T11:31:04.325Z,76.80
2022-10-11T11:34:14.835Z,71.53
2022-10-11T11:37:40.949Z,72.65
2022-10-11T11:41:06.859Z,37.90
2022-10-11T11:44:27.317Z,29.60
2022-10-11T11:47:37.948Z,50.95
2022-10-11T11:50:46.335Z,36.13
2022-10-11T11:54:18.694Z,32.80
2022-10-11T11:57:54.213Z,26.65
2022-10-11T12:01:07.562Z,20.63
2022-10-11T12:04:31.455Z,19.83
2022-10-11T12:07:58.271Z,21.95
2022-10-11T12:11:02.948Z,25.35
2022-10-11T12:14:33.416Z,24.73
2022-10-11T12:18:16.786Z,23.43
2022-10-11T12:21:23.733Z,23.33
2022-10-11T12:24:47.243Z,21.20
2022-10-11T12:27:57.045Z,24.88
2022-10-11T12:31:09.291Z,30.83
2022-10-11T12:34:18.460Z,26.77
2022-10-11T12:37:21.639Z,38.80
2022-10-11T12:40:38.506Z,31.45
2022-10-11T12:43:52.113Z,27.38
2022-10-11T12:46:56.795Z,26.13
2022-10-11T12:50:29.214Z,24.20
2022-10-11T12:54:08.179Z,28.58
2022-10-11T12:57:46.582Z,18.40
2022-10-11T13:00:53.707Z,27.02
2022-10-11T13:04:13.105Z,25.98
2022-10-11T13:07:24.505Z,22.53
2022-10-11T13:10:33.811Z,24.40
2022-10-11T13:13:57.608Z,22.60
2022-10-11T13:17:04.534Z,331.25
2022-10-11T13:20:11.763Z,20.75
2022-10-11T13:23:25.675Z,32.03
2022-10-11T13:26:31.604Z,25.15
2022-10-11T13:29:51.020Z,31.65
2022-10-11T13:32:56.140Z,28.30
2022-10-11T13:36:05.812Z,95.00
2022-10-11T13:39:30.132Z,29.03
2022-10-11T13:42:35.014Z,25.83
2022-10-11T13:45:42.217Z,27.42
2022-10-11T13:48:46.284Z,33.22
2022-10-11T13:52:03.386Z,37.20
2022-10-11T13:55:12.066Z,25.73
2022-10-11T13:58:35.242Z,27.73
2022-10-11T14:01:46.008Z,16.25
2022-10-11T14:04:51.193Z,20.20
2022-10-11T14:07:54.987Z,12.48
2022-10-11T14:11:05.153Z,13.33
2022-10-11T14:14:29.380Z,7.72
2022-10-11T14:17:43.133Z,7.35
2022-10-11T14:20:46.889Z,9.32
2022-10-11T14:23:59.476Z,8.23
2022-10-11T14:27:05.981Z,8.57
2022-10-11T14:30:26.441Z,8.15
2022-10-11T14:33:30.766Z,8.07
2022-10-11T14:36:34.597Z,8.65
2022-10-11T14:39:38.350Z,12.40
2022-10-11T14:42:45.383Z,15.53
2022-10-11T14:45:49.926Z,21.67
2022-10-11T14:48:56.207Z,22.17
2022-10-11T14:52:00.786Z,23.70
2022-10-11T14:55:04.670Z,24.60
2022-10-11T14:58:09.587Z,27.93
2022-10-11T15:01:17.588Z,31.98
2022-10-11T15:04:26.475Z,30.27
2022-10-11T15:07:30.139Z,33.38
2022-10-11T15:10:41.420Z,20.58
2022-10-11T15:13:44.904Z,11.83
2022-10-11T15:16:49.043Z,8.30
2022-10-11T15:19:52.720Z,9.93
2022-10-11T15:22:57.228Z,8.60
2022-10-11T15:26:00.965Z,7.07
2022-10-11T15:29:05.305Z,8.00
2022-10-11T15:32:09.044Z,11.68
2022-10-11T15:35:12.815Z,8.27
2022-10-11T15:38:19.231Z,13.70
2022-10-11T15:41:24.832Z,11.02
2022-10-11T15:44:28.768Z,8.17
2022-10-11T15:47:32.686Z,7.10
2022-10-11T15:50:37.829Z,6.53
2022-10-11T15:53:41.491Z,6.15
2022-10-11T15:56:44.510Z,6.78
2022-10-11T15:59:48.484Z,9.37
2022-10-11T16:02:56.171Z,8.70
2022-10-11T16:06:05.224Z,8.23
2022-10-11T16:09:09.504Z,9.52
2022-10-11T16:12:13.203Z,7.05
2022-10-11T16:15:17.310Z,8.03
2022-10-11T16:18:23.220Z,7.70
2022-10-11T16:21:26.177Z,8.73
2022-10-11T16:24:30.252Z,7.28
2022-10-11T16:27:34.507Z,9.68
2022-10-11T16:30:45.794Z,9.07
2022-10-11T16:33:50.806Z,8.10
2022-10-11T16:36:54.486Z,8.05
2022-10-11T16:39:58.049Z,7.30
2022-10-11T16:43:07.715Z,8.98
2022-10-11T16:46:11.744Z,9.80
2022-10-11T16:49:22.828Z,6.10
2022-10-11T16:52:27.092Z,8.15
2022-10-11T16:55:31.106Z,8.90
2022-10-11T16:58:35.349Z,6.82
2022-10-11T17:01:40.077Z,7.77
2022-10-11T17:04:44.164Z,7.70
2022-10-11T17:07:48.209Z,7.82
2022-10-11T17:10:57.894Z,7.53
2022-10-11T17:14:02.618Z,7.78
2022-10-11T17:17:07.750Z,7.27
2022-10-11T17:20:11.990Z,11.43
2022-10-11T17:23:15.357Z,8.82
2022-10-11T17:26:28.096Z,8.27
2022-10-11T17:29:31.355Z,7.93
2022-10-11T17:32:35.289Z,5.77
2022-10-11T17:35:38.182Z,4.97
2022-10-11T17:38:41.191Z,6.85
2022-10-11T17:41:45.606Z,8.60
2022-10-11T17:44:49.693Z,9.52
2022-10-11T17:47:52.858Z,8.40
2022-10-11T17:50:56.898Z,6.32
2022-10-11T17:54:00.676Z,9.15
2022-10-11T17:57:04.880Z,6.97
2022-10-11T18:00:08.979Z,5.88
2022-10-11T18:03:13.017Z,6.87
2022-10-11T18:06:16.358Z,7.05
2022-10-11T18:09:20.961Z,10.95
2022-10-11T18:12:24.836Z,9.40
2022-10-11T18:15:33.280Z,9.43
2022-10-11T18:18:36.792Z,6.40
2022-10-11T18:21:41.284Z,8.80
2022-10-11T18:24:44.958Z,7.25
2022-10-11T18:27:48.999Z,7.00
2022-10-11T18:30:53.724Z,5.22
2022-10-11T18:33:57.597Z,4.53
2022-10-11T18:37:01.173Z,6.90
2022-10-11T18:40:05.759Z,7.40
2022-10-11T18:43:09.461Z,5.88
2022-10-11T18:46:15.294Z,8.05
2022-10-11T18:49:18.939Z,5.77
2022-10-11T18:52:22.885Z,10.50
2022-10-11T18:55:25.816Z,6.13
2022-10-11T18:58:33.954Z,7.57
2022-10-11T19:01:42.884Z,8.02
2022-10-11T19:04:46.431Z,9.47
2022-10-11T19:07:49.306Z,6.90
2022-10-11T19:10:53.329Z,5.57
2022-10-11T19:14:07.474Z,5.60
2022-10-11T19:17:13.192Z,4.25
2022-10-11T19:20:17.092Z,4.80
2022-10-11T19:23:21.397Z,4.93
2022-10-11T19:26:29.346Z,3.85
2022-10-11T19:29:34.189Z,4.30
2022-10-11T19:32:37.987Z,5.13
2022-10-11T19:35:43.366Z,7.70
2022-10-11T19:38:48.794Z,4.85
2022-10-11T19:41:52.105Z,5.15
2022-10-11T19:44:55.359Z,2.92
2022-10-11T19:47:58.925Z,4.47
2022-10-11T19:51:04.626Z,5.57
2022-10-11T19:54:11.982Z,4.53
2022-10-11T19:57:15.014Z,8.80
2022-10-11T20:00:18.815Z,4.53
2022-10-11T20:03:22.531Z,5.22
2022-10-11T20:06:28.536Z,4.03
2022-10-11T20:09:32.199Z,3.38
2022-10-11T20:12:36.398Z,4.28
2022-10-11T20:15:40.059Z,3.35
2022-10-11T20:18:45.084Z,3.40
2022-10-11T20:21:48.822Z,3.17
2022-10-11T20:24:52.860Z,3.97
2022-10-11T20:27:56.511Z,5.22
2022-10-11T20:31:01.187Z,3.60
2022-10-11T20:34:07.685Z,4.50
2022-10-11T20:37:11.974Z,5.50
2022-10-11T20:40:19.063Z,4.35
2022-10-11T20:43:23.086Z,5.90
2022-10-11T20:46:29.402Z,7.68
2022-10-11T20:49:32.804Z,5.22
2022-10-11T20:52:36.898Z,5.77
2022-10-11T20:55:40.901Z,8.48
2022-10-11T20:58:45.274Z,5.72
2022-10-11T21:01:49.348Z,7.80
2022-10-11T21:04:52.420Z,6.25
2022-10-11T21:07:56.412Z,4.13
2022-10-11T21:11:00.335Z,4.40
2022-10-11T21:14:05.783Z,5.82
2022-10-11T21:17:09.520Z,6.63
2022-10-11T21:20:13.788Z,6.60
2022-10-11T21:23:19.338Z,8.30
2022-10-11T21:26:23.329Z,8.77
2022-10-11T21:29:26.846Z,10.68
2022-10-11T21:32:30.900Z,10.20
2022-10-11T21:35:34.954Z,15.18
2022-10-11T21:38:38.468Z,16.37
2022-10-11T21:41:42.899Z,11.27
2022-10-11T21:44:46.842Z,7.63
2022-10-11T21:47:50.013Z,8.85
2022-10-11T21:50:55.487Z,9.27
2022-10-11T21:54:02.761Z,6.77
2022-10-11T21:57:06.824Z,5.40
2022-10-11T22:00:10.610Z,4.93
2022-10-11T22:03:16.673Z,4.13
2022-10-11T22:06:20.630Z,4.45
2022-10-11T22:09:24.642Z,5.00
2022-10-11T22:12:28.066Z,3.97
2022-10-11T22:15:35.570Z,5.47
2022-10-11T22:18:40.090Z,5.25
2022-10-11T22:21:45.230Z,3.00
2022-10-11T22:24:49.199Z,9.37
2022-10-11T22:27:53.155Z,5.53
2022-10-11T22:30:56.358Z,4.53
2022-10-11T22:34:01.326Z,7.35
2022-10-11T22:37:05.026Z,7.00
2022-10-11T22:40:09.659Z,8.90
2022-10-11T22:43:13.244Z,8.48
2022-10-11T22:46:17.573Z,11.20
2022-10-11T22:49:21.037Z,8.80
2022-10-11T22:52:24.588Z,11.45
2022-10-11T22:55:28.247Z,7.60
2022-10-11T22:58:31.679Z,4.05
2022-10-11T23:01:35.415Z,5.57
2022-10-11T23:04:39.501Z,4.90
2022-10-11T23:07:43.231Z,6.40
2022-10-11T23:10:47.306Z,5.20
2022-10-11T23:13:51.086Z,8.43
2022-10-11T23:16:54.264Z,5.15
2022-10-11T23:19:57.875Z,5.95
2022-10-11T23:23:01.954Z,6.53
2022-10-11T23:26:06.453Z,7.87
2022-10-11T23:29:10.496Z,6.95
2022-10-11T23:32:14.422Z,14.48
2022-10-11T23:35:18.511Z,6.55
2022-10-11T23:38:22.275Z,4.78
2022-10-11T23:41:28.975Z,13.50
2022-10-11T23:44:32.677Z,9.45
2022-10-11T23:47:36.849Z,10.95
2022-10-11T23:50:40.366Z,7.35
2022-10-11T23:53:44.368Z,9.02
2022-10-11T23:56:48.016Z,8.37
2022-10-11T23:59:51.973Z,7.97
